Time;durP1;ratioP1;P1;durP2;ratioP2;P2;SDS_P1;SDS_P2;PMS_P1;PMS_P2;Temp;Humidity;BMP_temperature;BMP_pressure;BME280_temperature;BME280_humidity;BME280_pressure;Samples;Min_cycle;Max_cycle;Signal;HPM_P1;HPM_P2
2023/06/14 00:03:52;;;;;;;5.95;3.00;;;24.00;50.40;;;;;;10061072;28;20372;-65
2023/06/14 00:08:42;;;;;;;4.57;3.35;;;24.00;50.60;;;;;;10056892;28;20030;-62
2023/06/14 00:13:33;;;;;;;4.75;3.50;;;23.90;50.90;;;;;;10063103;28;20041;-64
2023/06/14 00:18:24;;;;;;;6.07;3.05;;;23.80;50.90;;;;;;10043612;28;20034;-63
2023/06/14 00:23:15;;;;;;;17.63;4.63;;;23.80;51.00;;;;;;10058651;28;20280;-61
2023/06/14 00:28:06;;;;;;;3.55;2.83;;;23.50;51.30;;;;;;10061216;28;20026;-61
2023/06/14 00:32:57;;;;;;;6.80;2.90;;;23.40;51.50;;;;;;10051402;28;20261;-62
2023/06/14 00:37:48;;;;;;;5.70;3.42;;;23.50;51.30;;;;;;10048689;28;20488;-61
2023/06/14 00:42:38;;;;;;;6.70;3.13;;;23.30;51.40;;;;;;10051859;28;20041;-61
2023/06/14 00:47:29;;;;;;;4.90;2.90;;;23.40;51.50;;;;;;10049981;28;20065;-62
2023/06/14 00:52:20;;;;;;;5.10;3.28;;;23.10;51.80;;;;;;10050312;28;20073;-61
2023/06/14 00:57:11;;;;;;;3.60;3.05;;;23.00;52.10;;;;;;10061099;28;20033;-61
2023/06/14 01:02:02;;;;;;;4.45;3.25;;;22.80;52.30;;;;;;10059815;28;20025;-62
2023/06/14 01:07:03;;;;;;;4.43;3.47;;;22.90;52.30;;;;;;10051833;28;20121;-61
2023/06/14 01:12:00;;;;;;;4.80;2.67;;;22.80;52.30;;;;;;10049088;28;20539;-60
2023/06/14 01:16:52;;;;;;;4.15;3.35;;;22.70;52.50;;;;;;10050063;28;20069;-61
2023/06/14 01:21:43;;;;;;;4.07;2.72;;;22.80;52.60;;;;;;10054308;28;20358;-62
2023/06/14 01:26:35;;;;;;;4.88;3.33;;;22.60;52.90;;;;;;10058691;28;20341;-60
2023/06/14 01:31:27;;;;;;;5.25;3.50;;;22.70;52.90;;;;;;10061672;28;20117;-62
2023/06/14 01:36:19;;;;;;;4.93;2.75;;;22.40;53.30;;;;;;10059341;28;20080;-61
2023/06/14 01:41:11;;;;;;;3.97;2.95;;;22.40;53.40;;;;;;10061835;28;20487;-61
2023/06/14 01:46:03;;;;;;;3.70;2.70;;;22.30;53.70;;;;;;10059842;28;20037;-62
2023/06/14 01:50:54;;;;;;;5.32;3.10;;;22.20;53.90;;;;;;10057912;28;20408;-61
2023/06/14 01:55:48;;;;;;;6.13;3.13;;;22.20;54.30;;;;;;10059331;28;20128;-61
2023/06/14 02:00:38;;;;;;;3.75;2.97;;;22.10;54.10;;;;;;10076785;28;20197;-61
2023/06/14 02:05:30;;;;;;;5.55;3.42;;;22.10;54.10;;;;;;10054857;28;20033;-63
2023/06/14 02:10:20;;;;;;;4.55;3.10;;;21.90;54.30;;;;;;10041476;28;20047;-62
2023/06/14 02:15:16;;;;;;;4.93;3.15;;;22.00;54.30;;;;;;10056187;28;20568;-62
2023/06/14 02:20:08;;;;;;;5.13;3.85;;;21.90;54.70;;;;;;10041686;28;20381;-62
2023/06/14 02:24:58;;;;;;;4.40;3.25;;;21.90;54.70;;;;;;10044421;28;20459;-63
2023/06/14 02:29:49;;;;;;;5.70;3.30;;;21.80;54.80;;;;;;10056179;28;20147;-62
2023/06/14 02:34:41;;;;;;;5.90;3.83;;;21.60;55.10;;;;;;10059766;28;20101;-63
2023/06/14 02:39:31;;;;;;;6.60;3.65;;;21.60;55.20;;;;;;10045185;28;20026;-62
2023/06/14 02:44:27;;;;;;;5.35;3.63;;;21.50;55.40;;;;;;10049059;28;20626;-62
2023/06/14 02:49:18;;;;;;;7.00;3.08;;;21.50;55.30;;;;;;10039788;28;20029;-62
2023/06/14 02:54:08;;;;;;;6.88;3.60;;;21.30;55.90;;;;;;10043815;28;20527;-62
2023/06/14 02:59:00;;;;;;;5.45;3.58;;;21.30;55.80;;;;;;10049114;28;20034;-62
2023/06/14 03:03:50;;;;;;;4.55;3.13;;;21.40;55.90;;;;;;10052307;28;20017;-62
2023/06/14 03:08:41;;;;;;;4.60;3.13;;;21.20;56.10;;;;;;10036971;28;20034;-62
2023/06/14 03:13:32;;;;;;;3.80;2.97;;;20.90;56.70;;;;;;10050163;28;20072;-62
2023/06/14 03:18:22;;;;;;;5.80;3.15;;;20.70;57.10;;;;;;10055614;28;20098;-60
2023/06/14 03:23:13;;;;;;;6.22;2.78;;;20.60;57.10;;;;;;10055165;28;20014;-61
2023/06/14 03:28:05;;;;;;;3.58;3.00;;;20.50;57.50;;;;;;10057125;28;20041;-64
2023/06/14 03:32:55;;;;;;;9.35;3.70;;;20.50;57.60;;;;;;10054715;28;20033;-62
2023/06/14 03:37:46;;;;;;;5.60;2.90;;;20.60;57.60;;;;;;10056831;28;20494;-63
2023/06/14 03:42:37;;;;;;;5.00;3.55;;;20.50;57.90;;;;;;10056086;28;20510;-62
2023/06/14 03:47:28;;;;;;;6.85;3.50;;;20.70;57.60;;;;;;10057290;28;20032;-61
2023/06/14 03:52:18;;;;;;;5.68;3.15;;;20.60;57.70;;;;;;10061604;22;20115;-63
2023/06/14 03:57:10;;;;;;;6.60;3.80;;;20.60;58.00;;;;;;10053343;28;20041;-62
2023/06/14 04:02:00;;;;;;;3.15;2.85;;;20.50;58.20;;;;;;10054914;28;20180;-63
2023/06/14 04:06:51;;;;;;;4.13;3.10;;;20.50;58.40;;;;;;10055238;28;20174;-62
2023/06/14 04:11:42;;;;;;;3.47;2.83;;;20.60;58.30;;;;;;10053037;28;20029;-62
2023/06/14 04:16:33;;;;;;;4.22;3.40;;;20.70;58.20;;;;;;10052912;28;20403;-62
2023/06/14 04:21:23;;;;;;;6.85;3.55;;;20.60;58.50;;;;;;10054925;28;20026;-62
2023/06/14 04:26:15;;;;;;;5.90;3.28;;;20.50;58.80;;;;;;10053466;28;20029;-63
2023/06/14 04:31:08;;;;;;;4.50;3.80;;;20.40;58.70;;;;;;10055482;28;20375;-63
2023/06/14 04:35:59;;;;;;;5.50;3.20;;;20.60;58.70;;;;;;10051314;28;20040;-63
2023/06/14 04:40:52;;;;;;;4.97;3.33;;;20.60;58.90;;;;;;10061954;28;20518;-63
2023/06/14 04:45:46;;;;;;;5.78;3.53;;;20.40;59.10;;;;;;10061628;28;20037;-62
2023/06/14 04:50:36;;;;;;;5.63;3.78;;;20.50;59.00;;;;;;10061627;28;20119;-63
2023/06/14 04:55:27;;;;;;;4.30;3.35;;;20.50;59.10;;;;;;10059767;28;20578;-63
2023/06/14 05:00:18;;;;;;;4.22;3.40;;;20.60;59.00;;;;;;10061698;28;20025;-63
2023/06/14 05:05:09;;;;;;;8.73;3.50;;;20.60;59.30;;;;;;10059000;28;20060;-63
2023/06/14 05:09:59;;;;;;;5.57;3.75;;;20.60;59.20;;;;;;10060212;28;20423;-64
2023/06/14 05:14:50;;;;;;;2.85;2.55;;;20.50;59.40;;;;;;10059811;28;20053;-62
2023/06/14 05:19:41;;;;;;;4.35;3.17;;;20.50;59.80;;;;;;10060383;28;20021;-62
2023/06/14 05:24:32;;;;;;;5.93;3.95;;;20.40;60.50;;;;;;10060585;28;20108;-63
2023/06/14 05:29:22;;;;;;;4.20;3.55;;;20.40;60.30;;;;;;10060438;28;20036;-63
2023/06/14 05:34:13;;;;;;;5.00;3.60;;;20.40;60.20;;;;;;10059772;28;20041;-62
2023/06/14 05:39:05;;;;;;;5.10;3.20;;;20.60;60.00;;;;;;10059948;28;20503;-62
2023/06/14 05:43:56;;;;;;;5.28;3.67;;;20.60;60.00;;;;;;10058964;28;20030;-62
2023/06/14 05:48:47;;;;;;;6.03;3.50;;;20.70;59.80;;;;;;10059332;28;20125;-62
2023/06/14 05:53:38;;;;;;;6.13;3.78;;;20.70;60.10;;;;;;10052111;28;20464;-62
2023/06/14 05:58:28;;;;;;;8.98;4.20;;;20.80;60.10;;;;;;10059266;28;20032;-62
2023/06/14 06:03:19;;;;;;;6.22;3.70;;;20.70;61.00;;;;;;10058779;28;20163;-62
2023/06/14 06:08:10;;;;;;;5.47;3.90;;;20.80;60.30;;;;;;10059242;28;20029;-63
2023/06/14 06:13:00;;;;;;;7.63;3.50;;;20.90;60.30;;;;;;10056680;28;20029;-63
2023/06/14 06:17:51;;;;;;;18.35;5.47;;;21.00;60.20;;;;;;10058637;28;20638;-63
2023/06/14 06:22:42;;;;;;;4.63;3.55;;;21.00;60.20;;;;;;10057472;28;20045;-64
2023/06/14 06:27:33;;;;;;;5.63;3.13;;;21.00;60.40;;;;;;10055846;28;20025;-63
2023/06/14 06:32:23;;;;;;;6.70;3.30;;;21.10;60.50;;;;;;10053897;28;20029;-62
2023/06/14 06:37:14;;;;;;;5.60;3.67;;;21.30;60.40;;;;;;10055593;28;20029;-66
2023/06/14 06:42:06;;;;;;;9.45;4.35;;;21.40;60.10;;;;;;10056167;28;20032;-65
2023/06/14 06:46:57;;;;;;;8.48;4.43;;;21.30;60.40;;;;;;10057264;28;20061;-66
2023/06/14 06:52:05;;;;;;;6.07;3.17;;;21.20;60.80;;;;;;10057195;28;20056;-65
2023/06/14 06:56:57;;;;;;;5.22;3.97;;;21.30;60.80;;;;;;10054801;28;20052;-65
2023/06/14 07:01:47;;;;;;;6.43;3.85;;;21.50;60.80;;;;;;10056660;28;20629;-66
2023/06/14 07:06:38;;;;;;;4.28;3.47;;;21.50;60.60;;;;;;10056439;28;20032;-65
2023/06/14 07:11:28;;;;;;;7.20;3.88;;;21.70;60.50;;;;;;10056439;28;20040;-65
2023/06/14 07:16:20;;;;;;;7.07;4.10;;;21.60;60.50;;;;;;10057178;28;20060;-64
2023/06/14 07:21:10;;;;;;;4.60;4.03;;;21.80;60.40;;;;;;10055862;28;20171;-68
2023/06/14 07:26:01;;;;;;;5.57;3.38;;;21.80;60.40;;;;;;10056138;28;20566;-67
2023/06/14 07:30:52;;;;;;;5.13;3.55;;;22.10;60.00;;;;;;10056360;28;20100;-68
2023/06/14 07:35:42;;;;;;;6.60;3.88;;;21.90;60.30;;;;;;10052038;28;20545;-67
2023/06/14 07:40:33;;;;;;;6.43;3.65;;;22.10;60.00;;;;;;10056107;28;20024;-67
2023/06/14 07:45:23;;;;;;;6.28;3.90;;;22.20;59.80;;;;;;10055822;28;20116;-67
2023/06/14 07:50:14;;;;;;;5.47;3.60;;;22.40;59.80;;;;;;10056416;28;20537;-69
2023/06/14 07:55:05;;;;;;;5.00;3.38;;;22.60;59.50;;;;;;10054975;28;20519;-70
2023/06/14 07:59:56;;;;;;;6.57;3.85;;;22.60;59.40;;;;;;10056154;28;20033;-69
2023/06/14 08:04:48;;;;;;;4.47;3.42;;;22.70;59.30;;;;;;10056014;28;20396;-70
2023/06/14 08:09:38;;;;;;;6.60;3.47;;;22.60;59.40;;;;;;10054708;28;20464;-72
2023/06/14 08:14:29;;;;;;;4.80;3.83;;;22.60;59.40;;;;;;10064216;28;20134;-69
2023/06/14 08:19:20;;;;;;;5.65;3.47;;;22.70;59.30;;;;;;10064443;28;20445;-68
2023/06/14 08:24:14;;;;;;;6.50;3.63;;;22.80;59.20;;;;;;10064947;28;20029;-69
2023/06/14 08:29:05;;;;;;;4.95;3.13;;;22.90;59.20;;;;;;10063614;28;20037;-69
2023/06/14 08:33:55;;;;;;;9.20;4.78;;;22.90;59.10;;;;;;10064821;28;20516;-69
2023/06/14 08:38:46;;;;;;;5.20;3.35;;;22.90;59.00;;;;;;10066980;28;20076;-71
2023/06/14 08:43:37;;;;;;;3.78;2.97;;;23.00;58.90;;;;;;10064320;28;20029;-69
2023/06/14 08:48:28;;;;;;;6.57;3.70;;;23.00;58.70;;;;;;10062303;28;20109;-69
2023/06/14 08:53:19;;;;;;;4.82;3.45;;;23.10;58.40;;;;;;10063227;28;20061;-69
2023/06/14 08:58:14;;;;;;;5.40;3.85;;;23.30;58.20;;;;;;10061935;28;20427;-69
2023/06/14 09:03:05;;;;;;;6.32;3.47;;;23.50;57.80;;;;;;10063198;28;20037;-68
2023/06/14 09:08:00;;;;;;;5.35;4.78;;;23.60;57.50;;;;;;10062213;28;20034;-68
2023/06/14 09:12:51;;;;;;;;;;;23.80;57.40;;;;;;10063633;28;20032;-66
2023/06/14 09:17:42;;;;;;;5.43;3.65;;;24.10;57.30;;;;;;10061693;28;20016;-67
2023/06/14 09:22:33;;;;;;;8.63;3.97;;;24.20;57.10;;;;;;10062636;28;20026;-67
2023/06/14 09:27:26;;;;;;;5.50;3.42;;;24.30;57.10;;;;;;10065270;28;20484;-68
2023/06/14 09:32:17;;;;;;;10.32;3.63;;;24.40;57.20;;;;;;10062345;28;20026;-70
2023/06/14 09:37:08;;;;;;;4.60;3.40;;;24.30;57.10;;;;;;10064029;28;20195;-68
2023/06/14 09:41:59;;;;;;;7.72;3.28;;;24.20;57.20;;;;;;10060857;28;20028;-69
2023/06/14 09:46:51;;;;;;;6.97;3.58;;;24.30;57.20;;;;;;10064807;28;20044;-69
2023/06/14 09:51:47;;;;;;;8.88;3.75;;;24.50;56.90;;;;;;10062468;28;20041;-71
2023/06/14 09:56:40;;;;;;;7.05;3.70;;;24.60;56.60;;;;;;10060895;28;20086;-68
2023/06/14 10:01:31;;;;;;;6.15;3.33;;;24.60;56.40;;;;;;10041103;28;20043;-68
2023/06/14 10:06:24;;;;;;;5.88;3.35;;;24.70;56.40;;;;;;10058792;28;20030;-68
2023/06/14 10:11:15;;;;;;;5.15;3.58;;;24.80;56.10;;;;;;10058493;28;20638;-69
2023/06/14 10:16:15;;;;;;;4.82;3.40;;;24.80;55.90;;;;;;10057157;28;20044;-68
2023/06/14 10:21:42;;;;;;;4.45;3.08;;;24.90;55.60;;;;;;10058154;28;20021;-68
2023/06/14 10:26:32;;;;;;;4.90;3.50;;;25.00;55.20;;;;;;10036237;28;20048;-69
2023/06/14 10:31:39;;;;;;;6.15;2.95;;;25.20;55.20;;;;;;10049807;28;20018;-69
2023/06/14 10:36:31;;;;;;;5.15;3.10;;;25.30;54.80;;;;;;10050536;28;20498;-69
2023/06/14 10:41:21;;;;;;;5.85;2.60;;;25.20;54.10;;;;;;10056978;28;20029;-68
2023/06/14 10:46:17;;;;;;;4.35;2.85;;;25.30;53.70;;;;;;10057134;28;20506;-68
2023/06/14 10:51:21;;;;;;;3.70;3.03;;;25.50;53.50;;;;;;10056624;28;20117;-68
2023/06/14 10:56:25;;;;;;;6.45;3.05;;;25.80;53.10;;;;;;10052221;28;20046;-68
2023/06/14 11:01:18;;;;;;;7.00;3.50;;;25.70;53.20;;;;;;10049301;28;20111;-68
2023/06/14 11:06:14;;;;;;;6.93;3.30;;;25.60;53.80;;;;;;10056692;28;20500;-68
2023/06/14 11:11:09;;;;;;;4.80;3.15;;;25.90;53.10;;;;;;10056437;28;20018;-68
2023/06/14 11:16:00;;;;;;;4.32;3.22;;;25.80;52.80;;;;;;10055317;28;20041;-68
2023/06/14 11:20:50;;;;;;;3.42;2.72;;;25.80;52.70;;;;;;10056001;28;20021;-69
2023/06/14 11:25:41;;;;;;;4.32;2.78;;;25.70;52.10;;;;;;10056124;28;20025;-68
2023/06/14 11:30:32;;;;;;;8.75;3.30;;;25.70;51.80;;;;;;10056450;28;20037;-67
2023/06/14 11:35:23;;;;;;;3.88;2.67;;;25.80;51.40;;;;;;10055875;28;20411;-69
2023/06/14 11:40:13;;;;;;;4.22;2.42;;;25.90;51.00;;;;;;10056248;28;20022;-68
2023/06/14 11:45:07;;;;;;;6.38;3.17;;;25.90;50.70;;;;;;10062168;28;20034;-68
2023/06/14 11:49:59;;;;;;;5.22;2.92;;;26.10;50.50;;;;;;10057020;28;20036;-69
2023/06/14 11:54:50;;;;;;;2.72;2.38;;;26.30;50.10;;;;;;10058429;28;20049;-68
2023/06/14 11:59:41;;;;;;;5.20;2.92;;;26.40;50.00;;;;;;10059572;28;20515;-69
2023/06/14 12:04:31;;;;;;;3.70;2.95;;;26.40;49.60;;;;;;10058326;28;20994;-68
2023/06/14 12:09:23;;;;;;;4.60;2.33;;;26.60;49.40;;;;;;10062338;28;20038;-69
2023/06/14 12:14:14;;;;;;;5.55;2.97;;;26.70;49.10;;;;;;10062182;28;20777;-68
2023/06/14 12:19:16;;;;;;;4.65;2.83;;;27.10;49.00;;;;;;10052032;28;20048;-69
2023/06/14 12:24:07;;;;;;;4.25;2.63;;;27.10;48.60;;;;;;10061387;28;20530;-68
2023/06/14 12:28:58;;;;;;;5.78;2.40;;;27.20;48.70;;;;;;10062336;28;20095;-67
2023/06/14 12:33:49;;;;;;;2.53;2.33;;;27.60;49.00;;;;;;10063370;28;20030;-69
2023/06/14 12:38:41;;;;;;;4.03;2.53;;;28.00;48.90;;;;;;10061126;28;20496;-67
2023/06/14 12:43:31;;;;;;;3.33;3.05;;;28.30;48.60;;;;;;10061693;28;20081;-67
2023/06/14 12:48:22;;;;;;;6.30;3.20;;;28.50;48.30;;;;;;10061187;28;20040;-68
2023/06/14 12:53:13;;;;;;;3.53;3.10;;;28.80;48.40;;;;;;10059749;28;20144;-68
2023/06/14 12:58:04;;;;;;;3.50;2.67;;;29.80;48.60;;;;;;10061746;28;20045;-68
2023/06/14 13:02:55;;;;;;;4.78;3.42;;;30.50;48.00;;;;;;10052009;28;20030;-71
2023/06/14 13:07:45;;;;;;;2.97;2.67;;;31.10;47.70;;;;;;10061493;28;20056;-66
2023/06/14 13:12:36;;;;;;;4.07;2.67;;;31.40;47.40;;;;;;10060649;28;20479;-69
2023/06/14 13:17:27;;;;;;;5.97;3.97;;;32.00;46.90;;;;;;10059980;28;20056;-67
2023/06/14 13:22:18;;;;;;;3.40;2.87;;;32.50;46.70;;;;;;10059266;28;20026;-67
2023/06/14 13:27:08;;;;;;;6.10;2.70;;;32.70;45.90;;;;;;10059931;28;20487;-68
2023/06/14 13:31:59;;;;;;;3.50;3.20;;;33.10;46.00;;;;;;10060006;28;20049;-71
2023/06/14 13:36:50;;;;;;;5.40;3.03;;;33.10;45.20;;;;;;10059745;28;20534;-70
2023/06/14 13:41:41;;;;;;;4.13;3.17;;;33.40;45.00;;;;;;10058691;28;20048;-77
2023/06/14 13:46:31;;;;;;;4.73;3.10;;;33.60;44.60;;;;;;10059622;28;20487;-74
2023/06/14 13:51:22;;;;;;;5.40;2.77;;;33.80;44.40;;;;;;10059073;28;20101;-74
2023/06/14 13:56:13;;;;;;;4.22;3.30;;;34.50;44.00;;;;;;10058854;28;20196;-73
2023/06/14 14:01:03;;;;;;;5.50;2.83;;;34.90;43.50;;;;;;10058638;28;20038;-69
2023/06/14 14:05:54;;;;;;;5.53;3.93;;;34.60;43.30;;;;;;10057673;28;20025;-69
2023/06/14 14:10:45;;;;;;;3.43;2.93;;;34.60;43.00;;;;;;10058492;28;20037;-74
2023/06/14 14:15:36;;;;;;;5.60;3.22;;;34.70;42.70;;;;;;10058225;28;20101;-71
2023/06/14 14:20:27;;;;;;;4.37;3.07;;;34.90;42.40;;;;;;10058219;28;20061;-69
2023/06/14 14:25:18;;;;;;;2.63;2.42;;;35.00;42.50;;;;;;10057131;28;20040;-69
2023/06/14 14:30:09;;;;;;;3.20;2.67;;;34.70;42.20;;;;;;10056357;28;20354;-71
2023/06/14 14:35:00;;;;;;;3.33;3.03;;;34.60;42.30;;;;;;10056665;28;20054;-71
2023/06/14 14:39:51;;;;;;;7.67;2.80;;;34.90;42.30;;;;;;10057537;28;20114;-74
2023/06/14 14:44:41;;;;;;;3.42;2.50;;;35.30;42.10;;;;;;10056027;28;20040;-69
2023/06/14 14:49:32;;;;;;;3.97;2.45;;;35.10;41.70;;;;;;10057470;28;20160;-71
2023/06/14 14:54:24;;;;;;;5.32;2.67;;;34.90;41.60;;;;;;10056859;28;20092;-70
2023/06/14 14:59:15;;;;;;;3.83;2.70;;;35.00;41.30;;;;;;10058271;28;20091;-70
2023/06/14 15:04:06;;;;;;;4.35;2.55;;;35.00;41.40;;;;;;10057250;28;20095;-67
2023/06/14 15:08:57;;;;;;;4.33;2.90;;;35.10;41.40;;;;;;10057256;28;20051;-68
2023/06/14 15:13:48;;;;;;;;;;;35.80;41.00;;;;;;10057217;28;20030;-67
2023/06/14 15:18:39;;;;;;;;;;;35.90;41.00;;;;;;10056354;28;19911;-69
2023/06/14 15:23:30;;;;;;;4.13;2.67;;;35.80;40.70;;;;;;10054002;28;20015;-68
2023/06/14 15:28:21;;;;;;;4.57;2.40;;;35.50;41.30;;;;;;10055605;28;20052;-67
2023/06/14 15:33:11;;;;;;;;;;;34.90;40.90;;;;;;10055111;28;20033;-68
2023/06/14 15:38:02;;;;;;;8.00;2.20;;;35.40;40.30;;;;;;10054438;28;19921;-70
2023/06/14 15:42:53;;;;;;;4.97;2.47;;;35.30;40.20;;;;;;10044768;28;20450;-68
2023/06/14 15:47:43;;;;;;;5.00;2.53;;;35.90;39.80;;;;;;10054493;28;20063;-71
2023/06/14 15:52:35;;;;;;;4.00;2.33;;;36.40;39.40;;;;;;10054249;28;20419;-69
2023/06/14 15:57:25;;;;;;;9.45;2.95;;;36.30;39.20;;;;;;10053351;28;20037;-69
2023/06/14 16:02:16;;;;;;;4.47;2.40;;;36.70;39.10;;;;;;10054906;28;20036;-69
2023/06/14 16:07:07;;;;;;;2.13;1.93;;;37.30;38.70;;;;;;10055313;28;20503;-69
2023/06/14 16:11:57;;;;;;;5.43;2.83;;;37.90;38.40;;;;;;10054442;28;20140;-70
2023/06/14 16:16:48;;;;;;;3.40;2.97;;;37.80;38.20;;;;;;10054278;28;20538;-68
2023/06/14 16:21:39;;;;;;;4.28;2.58;;;38.20;38.10;;;;;;10052044;28;20060;-69
2023/06/14 16:26:30;;;;;;;4.43;2.80;;;38.70;37.70;;;;;;10054185;28;20072;-68
2023/06/14 16:31:21;;;;;;;;;;;40.70;37.10;;;;;;10062034;28;20535;-71
2023/06/14 16:36:12;;;;;;;3.55;3.00;;;40.80;36.70;;;;;;10063876;28;20023;-72
2023/06/14 16:41:03;;;;;;;;;;;40.30;36.90;;;;;;10062960;28;20109;-71
2023/06/14 16:45:53;;;;;;;2.50;2.30;;;40.40;37.00;;;;;;10061591;28;19909;-71
2023/06/14 16:50:44;;;;;;;4.40;2.60;;;41.30;36.90;;;;;;10060598;28;20029;-73
2023/06/14 16:55:36;;;;;;;3.30;3.00;;;41.50;36.80;;;;;;10061009;28;20459;-71
2023/06/14 17:00:26;;;;;;;4.80;2.90;;;40.40;36.90;;;;;;10060600;28;20075;-71
2023/06/14 17:05:17;;;;;;;3.72;3.40;;;40.80;36.80;;;;;;10060264;28;20044;-70
2023/06/14 17:10:08;;;;;;;4.00;3.05;;;40.80;36.80;;;;;;10059924;28;20104;-69
2023/06/14 17:14:58;;;;;;;4.93;2.97;;;40.20;37.10;;;;;;10059415;28;20132;-66
2023/06/14 17:19:49;;;;;;;3.63;2.85;;;39.10;37.50;;;;;;10059509;28;20029;-67
2023/06/14 17:24:40;;;;;;;4.40;3.30;;;38.90;37.50;;;;;;10056116;28;20115;-66
2023/06/14 17:29:30;;;;;;;3.60;2.60;;;39.40;37.30;;;;;;10057894;28;20071;-68
2023/06/14 17:34:21;;;;;;;8.02;2.67;;;38.40;37.60;;;;;;10049295;28;20030;-66
2023/06/14 17:39:11;;;;;;;;;;;38.10;37.60;;;;;;10057795;28;20029;-69
2023/06/14 17:44:03;;;;;;;3.50;2.77;;;37.90;37.70;;;;;;10058274;28;19913;-68
2023/06/14 17:48:54;;;;;;;3.83;2.83;;;37.50;38.10;;;;;;10058132;28;20435;-68
2023/06/14 17:53:45;;;;;;;3.38;2.63;;;37.20;38.30;;;;;;10057771;28;20108;-70
2023/06/14 17:58:35;;;;;;;5.00;3.40;;;36.60;38.60;;;;;;10057465;28;20037;-70
2023/06/14 18:03:26;;;;;;;3.97;2.67;;;35.60;39.10;;;;;;10055959;28;20037;-71
2023/06/14 18:08:17;;;;;;;7.60;3.03;;;33.50;40.00;;;;;;10058140;28;20087;-73
2023/06/14 18:13:07;;;;;;;4.50;3.50;;;31.80;40.80;;;;;;10056296;28;20034;-69
2023/06/14 18:17:58;;;;;;;6.35;3.05;;;30.80;41.40;;;;;;10055262;28;20056;-75
2023/06/14 18:22:49;;;;;;;6.10;3.22;;;30.30;41.50;;;;;;10055735;28;20041;-70
2023/06/14 18:27:40;;;;;;;4.40;3.03;;;29.90;42.00;;;;;;10056738;28;20033;-69
2023/06/14 18:32:33;;;;;;;3.97;2.75;;;29.40;42.40;;;;;;10057946;28;20037;-72
2023/06/14 18:37:24;;;;;;;6.75;3.42;;;28.80;43.10;;;;;;10057277;28;20048;-72
2023/06/14 18:42:15;;;;;;;4.03;2.97;;;28.60;43.30;;;;;;10057329;28;20387;-72
2023/06/14 18:47:06;;;;;;;2.90;2.60;;;28.20;43.80;;;;;;10056815;28;20029;-73
2023/06/14 18:51:58;;;;;;;3.47;2.40;;;28.00;44.20;;;;;;10056048;28;20045;-72
2023/06/14 18:56:48;;;;;;;5.13;2.90;;;27.70;44.80;;;;;;10056040;28;20036;-73
2023/06/14 19:01:39;;;;;;;4.38;2.83;;;27.50;45.20;;;;;;10056065;28;20044;-71
2023/06/14 19:06:30;;;;;;;4.40;2.88;;;27.40;45.30;;;;;;10052713;28;20114;-70
2023/06/14 19:11:20;;;;;;;5.00;3.30;;;27.40;45.60;;;;;;10053406;28;20029;-70
2023/06/14 19:16:11;;;;;;;4.50;3.47;;;27.40;45.70;;;;;;10054062;28;20081;-71
2023/06/14 19:21:02;;;;;;;5.18;3.20;;;27.20;46.50;;;;;;10053845;28;20500;-70
2023/06/14 19:25:53;;;;;;;4.95;3.28;;;27.10;46.30;;;;;;10054518;28;20406;-71
2023/06/14 19:30:44;;;;;;;5.55;3.13;;;27.00;47.20;;;;;;10055132;28;20355;-72
2023/06/14 19:35:34;;;;;;;5.03;4.00;;;26.80;46.90;;;;;;10051294;28;20096;-72
2023/06/14 19:40:25;;;;;;;6.07;3.13;;;26.80;47.20;;;;;;10055712;28;20029;-71
2023/06/14 19:45:16;;;;;;;3.67;2.88;;;26.50;47.40;;;;;;10055674;28;20075;-70
2023/06/14 19:50:07;;;;;;;4.45;2.92;;;26.40;47.70;;;;;;10051008;28;20045;-69
2023/06/14 19:54:58;;;;;;;3.20;2.78;;;26.40;47.90;;;;;;10054305;28;20076;-74
2023/06/14 19:59:48;;;;;;;4.35;2.95;;;26.30;48.00;;;;;;10054703;28;20021;-70
2023/06/14 20:04:39;;;;;;;4.07;3.67;;;26.20;48.30;;;;;;10058280;28;20030;-68
2023/06/14 20:09:31;;;;;;;4.40;3.08;;;26.20;48.60;;;;;;10061192;28;20029;-72
2023/06/14 20:14:22;;;;;;;3.85;3.35;;;26.10;48.70;;;;;;10059803;28;20071;-70
2023/06/14 20:19:13;;;;;;;5.03;3.33;;;26.00;48.90;;;;;;10058885;28;20026;-70
2023/06/14 20:24:04;;;;;;;3.28;2.90;;;25.90;49.10;;;;;;10060868;28;20033;-69
2023/06/14 20:28:55;;;;;;;4.28;3.25;;;25.80;49.30;;;;;;10053991;28;20029;-72
2023/06/14 20:33:46;;;;;;;5.05;3.72;;;25.80;49.40;;;;;;10061529;28;20040;-62
2023/06/14 20:38:36;;;;;;;3.42;2.92;;;25.80;49.80;;;;;;10061111;28;20044;-62
2023/06/14 20:43:27;;;;;;;5.43;4.05;;;25.90;50.20;;;;;;10061228;28;20025;-63
2023/06/14 20:48:18;;;;;;;4.22;3.17;;;25.90;50.50;;;;;;10060726;28;20057;-62
2023/06/14 20:53:09;;;;;;;4.88;3.00;;;25.90;50.60;;;;;;10058513;28;20033;-65
2023/06/14 20:58:00;;;;;;;4.55;3.42;;;25.70;50.80;;;;;;10060531;28;20045;-62
2023/06/14 21:02:50;;;;;;;5.57;3.45;;;25.50;51.10;;;;;;10059891;28;20033;-62
2023/06/14 21:07:42;;;;;;;5.25;2.92;;;25.50;51.10;;;;;;10059792;28;20034;-63
2023/06/14 21:12:33;;;;;;;6.35;3.90;;;25.30;51.40;;;;;;10059659;28;20430;-64
2023/06/14 21:17:23;;;;;;;6.45;3.85;;;25.30;51.50;;;;;;10059657;28;20034;-60
2023/06/14 21:22:14;;;;;;;4.10;2.92;;;25.30;51.50;;;;;;10060000;28;20147;-62
2023/06/14 21:27:05;;;;;;;6.72;3.83;;;25.20;51.80;;;;;;10060090;28;20033;-62
2023/06/14 21:31:56;;;;;;;3.35;2.60;;;25.10;51.80;;;;;;10058261;28;20537;-62
2023/06/14 21:36:46;;;;;;;3.65;2.78;;;25.00;51.90;;;;;;10059718;28;20269;-63
2023/06/14 21:41:37;;;;;;;5.22;3.28;;;24.90;52.20;;;;;;10059605;28;20037;-62
2023/06/14 21:46:31;;;;;;;7.60;4.28;;;25.00;52.10;;;;;;10058437;28;20438;-64
2023/06/14 21:51:21;;;;;;;11.00;3.25;;;24.80;52.50;;;;;;10058434;28;20053;-67
2023/06/14 21:56:12;;;;;;;6.78;3.63;;;24.70;52.70;;;;;;10056601;28;20132;-61
2023/06/14 22:01:02;;;;;;;4.38;3.00;;;25.00;52.60;;;;;;10056458;28;20059;-65
2023/06/14 22:05:53;;;;;;;5.13;2.85;;;24.80;52.80;;;;;;10057602;28;20168;-67
2023/06/14 22:10:44;;;;;;;4.00;3.20;;;24.50;53.20;;;;;;10057597;28;20033;-66
2023/06/14 22:15:34;;;;;;;5.50;3.90;;;24.40;53.40;;;;;;10057093;28;20495;-65
2023/06/14 22:20:28;;;;;;;4.22;2.65;;;24.30;53.50;;;;;;10057168;28;20076;-63
2023/06/14 22:25:19;;;;;;;4.32;3.28;;;24.30;53.80;;;;;;10056708;28;20026;-61
2023/06/14 22:30:11;;;;;;;5.43;3.25;;;24.10;54.20;;;;;;10057970;28;20033;-61
2023/06/14 22:35:02;;;;;;;6.32;3.08;;;24.10;54.10;;;;;;10056405;28;20132;-65
2023/06/14 22:39:53;;;;;;;3.22;2.75;;;23.90;54.60;;;;;;10056011;28;20033;-65
2023/06/14 22:44:50;;;;;;;5.07;3.50;;;24.00;54.60;;;;;;10055845;28;20029;-62
2023/06/14 22:49:40;;;;;;;4.18;3.15;;;24.00;54.60;;;;;;10056755;28;20036;-61
2023/06/14 22:54:32;;;;;;;3.92;3.38;;;24.00;54.70;;;;;;10055834;28;20519;-60
2023/06/14 22:59:23;;;;;;;3.78;3.25;;;23.70;55.20;;;;;;10056607;28;20037;-63
2023/06/14 23:04:14;;;;;;;4.50;3.40;;;23.60;55.10;;;;;;10056032;28;20061;-63
2023/06/14 23:09:06;;;;;;;4.38;3.25;;;23.70;55.10;;;;;;10055811;28;20052;-66
2023/06/14 23:13:58;;;;;;;3.72;2.72;;;23.60;55.10;;;;;;10054772;28;20037;-63
2023/06/14 23:18:48;;;;;;;4.88;3.08;;;23.40;55.40;;;;;;10055456;28;20431;-63
2023/06/14 23:23:39;;;;;;;3.10;2.80;;;23.40;55.60;;;;;;10055035;28;20040;-62
2023/06/14 23:28:33;;;;;;;5.45;3.17;;;23.40;55.60;;;;;;10055313;28;20036;-61
2023/06/14 23:33:24;;;;;;;3.50;2.85;;;23.20;55.90;;;;;;10055049;28;20071;-62
2023/06/14 23:38:17;;;;;;;4.60;3.25;;;23.20;55.80;;;;;;10062032;28;20048;-63
2023/06/14 23:43:08;;;;;;;4.03;3.03;;;23.10;55.90;;;;;;10068145;28;20037;-61
2023/06/14 23:47:58;;;;;;;5.53;2.72;;;23.10;55.80;;;;;;10067652;28;20079;-61
2023/06/14 23:52:50;;;;;;;2.95;2.42;;;23.00;56.00;;;;;;10067957;28;20042;-62
2023/06/14 23:57:41;;;;;;;3.00;2.45;;;22.90;56.20;;;;;;10068057;28;20120;-62
